MiSS Sylvia — WDE5412 — position and weather

sailwx.info

Track history (hours):
 
Tides and Currents Weather Stations Pressure Air Temp Water Temp Dewpoint Dewpoint Depression Visibility Wind Speed Wind Dir Waves Ship Positions

MiSS Sylvia

Owner: DOUBLE J MARINE, LLC, LAPLACE, LA. More information available from US FCC via Universal Licensing System and Coast Guard Vessel Documentation Center.

Last reported at 2015-Apr-27 11:23 UTC. Time now 2015-Apr-28 10:21 UTC.
Position N 29°56' W 090°20'.

Length 20 m; draft 2.7 m.

Type: Towing. MMSI: 367366340.

Date/timePositionNaut miles runAvg speedWind from/ knotsBaromVisibWave heightAir tempDewpointWater temp
2015-Apr-27 11:23N 29°56' W 090°20'7 8.2
2015-Apr-27 10:33N 29°60' W 090°27'4 0.7
2015-Apr-27 04:14N 29°57' W 090°23'3 4.0
2015-Apr-27 03:33N 29°56' W 090°20'2 0.2
2015-Apr-26 19:23N 29°56' W 090°22'11 0.5
2015-Apr-25 22:33N 29°57' W 090°09'2 1.6
2015-Apr-25 21:30N 29°56' W 090°08'2 2.1
2015-Apr-25 20:34N 29°54' W 090°07'3 2.4
2015-Apr-25 19:28N 29°55' W 090°04'2 2.5
2015-Apr-25 18:31N 29°57' W 090°02'3 3.0
2015-Apr-25 17:23N 29°56' W 089°59'4 4.1
2015-Apr-25 16:20N 29°54' W 089°55'5 0.2
2015-Apr-24 16:13N 29°56' W 089°60'  
2015-Apr-22 11:13N 29°47' W 090°01'9 3.2
2015-Apr-22 08:33N 29°39' W 089°57'3 2.9
2015-Apr-22 07:33N 29°38' W 089°55'18 2.8
2015-Apr-22 01:19N 29°55' W 089°55'1 1.3
2015-Apr-22 00:24N 29°55' W 089°57'6 7.0
2015-Apr-21 23:33N 29°56' W 090°04'28 1.6
2015-Apr-21 06:20N 30°03' W 090°35'1 0.7
2015-Apr-21 05:10N 30°03' W 090°36'6 6.2
2015-Apr-21 04:13N 30°01' W 090°42'  
2015-Apr-19 00:10N 29°56' W 089°59'5 6.5
2015-Apr-18 23:24N 29°55' W 090°05'  
Track history (hours):
 
Tides and Currents Weather Stations Pressure Air Temp Water Temp Dewpoint Dewpoint Depression Visibility Wind Speed Wind Dir Waves Ship Positions

MiSS Sylvia

Owner: DOUBLE J MARINE, LLC, LAPLACE, LA. More information available from US FCC via Universal Licensing System and Coast Guard Vessel Documentation Center.

Last reported at 2015-Apr-27 11:23 UTC. Time now 2015-Apr-28 10:21 UTC.
Position N 29°56' W 090°20'.

Length 20 m; draft 2.7 m.

Type: Towing. MMSI: 367366340.

Date/timePositionNaut miles runAvg speedWind from/ knotsBaromVisibWave heightAir tempDewpointWater temp
2015-Apr-27 11:23N 29°56' W 090°20'7 8.2
2015-Apr-27 10:33N 29°60' W 090°27'4 0.7
2015-Apr-27 04:14N 29°57' W 090°23'3 4.0
2015-Apr-27 03:33N 29°56' W 090°20'2 0.2
2015-Apr-26 19:23N 29°56' W 090°22'11 0.5
2015-Apr-25 22:33N 29°57' W 090°09'2 1.6
2015-Apr-25 21:30N 29°56' W 090°08'2 2.1
2015-Apr-25 20:34N 29°54' W 090°07'3 2.4
2015-Apr-25 19:28N 29°55' W 090°04'2 2.5
2015-Apr-25 18:31N 29°57' W 090°02'3 3.0
2015-Apr-25 17:23N 29°56' W 089°59'4 4.1
2015-Apr-25 16:20N 29°54' W 089°55'5 0.2
2015-Apr-24 16:13N 29°56' W 089°60'  
2015-Apr-22 11:13N 29°47' W 090°01'9 3.2
2015-Apr-22 08:33N 29°39' W 089°57'3 2.9
2015-Apr-22 07:33N 29°38' W 089°55'18 2.8
2015-Apr-22 01:19N 29°55' W 089°55'1 1.3
2015-Apr-22 00:24N 29°55' W 089°57'6 7.0
2015-Apr-21 23:33N 29°56' W 090°04'28 1.6
2015-Apr-21 06:20N 30°03' W 090°35'1 0.7
2015-Apr-21 05:10N 30°03' W 090°36'6 6.2
2015-Apr-21 04:13N 30°01' W 090°42'  
2015-Apr-19 00:10N 29°56' W 089°59'5 6.5
2015-Apr-18 23:24N 29°55' W 090°05'  

Dump ship's entire track history